Time;durP1;ratioP1;P1;durP2;ratioP2;P2;SDS_P1;SDS_P2;PMS_P1;PMS_P2;Temp;Humidity;BMP_temperature;BMP_pressure;BME280_temperature;BME280_humidity;BME280_pressure;Samples;Min_cycle;Max_cycle;Signal;HPM_P1;HPM_P2
2022/03/05 00:01:32;;;;;;;23.90;8.70;;;;;;;;;;5045923;28;20472;-65
2022/03/05 00:04:00;;;;;;;19.37;8.13;;;;;;;;;;5049963;28;20606;-64
2022/03/05 00:06:27;;;;;;;21.40;8.07;;;;;;;;;;5045266;28;20497;-64
2022/03/05 00:08:54;;;;;;;20.50;6.80;;;;;;;;;;5046590;28;20457;-65
2022/03/05 00:11:21;;;;;;;20.93;7.90;;;;;;;;;;5048644;28;20480;-64
2022/03/05 00:13:47;;;;;;;27.67;8.40;;;;;;;;;;5032540;28;20446;-65
2022/03/05 00:16:14;;;;;;;26.00;8.20;;;;;;;;;;5033915;28;20469;-64
2022/03/05 00:18:41;;;;;;;23.23;7.70;;;;;;;;;;5032113;28;20508;-64
2022/03/05 00:21:07;;;;;;;19.17;7.57;;;;;;;;;;5040020;28;21042;-64
2022/03/05 00:23:35;;;;;;;19.53;7.60;;;;;;;;;;5052009;28;20530;-64
2022/03/05 00:26:02;;;;;;;17.77;7.20;;;;;;;;;;5051125;28;20437;-64
2022/03/05 00:28:29;;;;;;;18.07;6.43;;;;;;;;;;5048283;28;20872;-64
2022/03/05 00:30:58;;;;;;;23.87;7.27;;;;;;;;;;5035163;28;20448;-64
2022/03/05 00:33:25;;;;;;;21.40;6.90;;;;;;;;;;5051815;28;20447;-64
2022/03/05 00:35:51;;;;;;;16.73;6.30;;;;;;;;;;5046574;28;20492;-64
2022/03/05 00:38:18;;;;;;;18.57;6.43;;;;;;;;;;5033204;28;20442;-64
2022/03/05 00:40:46;;;;;;;20.77;6.97;;;;;;;;;;5045776;28;20982;-64
2022/03/05 00:43:14;;;;;;;17.50;6.70;;;;;;;;;;5049666;28;20449;-64
2022/03/05 00:45:40;;;;;;;17.50;7.17;;;;;;;;;;5047136;28;20490;-64
2022/03/05 00:48:07;;;;;;;18.20;7.70;;;;;;;;;;5031657;28;20423;-64
2022/03/05 00:50:33;;;;;;;14.23;5.77;;;;;;;;;;5041356;28;20469;-64
2022/03/05 00:53:00;;;;;;;13.50;5.57;;;;;;;;;;5039098;28;20445;-64
2022/03/05 00:55:27;;;;;;;16.80;6.20;;;;;;;;;;5030125;28;20474;-64
2022/03/05 00:57:53;;;;;;;11.67;5.53;;;;;;;;;;5032215;28;20457;-64
2022/03/05 01:00:20;;;;;;;12.27;5.13;;;;;;;;;;5047308;28;20445;-64
2022/03/05 01:02:47;;;;;;;15.73;5.87;;;;;;;;;;5043573;28;20473;-64
2022/03/05 01:41:10;;;;;;;6.70;2.03;;;;;;;;;;5045955;28;20484;-65
2022/03/05 01:43:37;;;;;;;5.47;1.70;;;;;;;;;;5049577;28;20438;-64
2022/03/05 01:46:04;;;;;;;3.60;1.37;;;;;;;;;;5043665;28;20798;-64
2022/03/05 01:48:31;;;;;;;3.17;0.90;;;;;;;;;;5035244;28;20441;-64
2022/03/05 01:50:58;;;;;;;1.97;1.07;;;;;;;;;;5036816;28;20492;-64
2022/03/05 01:53:24;;;;;;;3.67;1.20;;;;;;;;;;5033005;28;20431;-64
2022/03/05 01:55:51;;;;;;;4.50;1.20;;;;;;;;;;5036100;28;20437;-64
2022/03/05 01:58:18;;;;;;;4.17;1.20;;;;;;;;;;5047187;28;20456;-64
2022/03/05 02:00:45;;;;;;;2.37;0.90;;;;;;;;;;5028525;28;20481;-65
2022/03/05 02:03:11;;;;;;;3.57;1.10;;;;;;;;;;5041032;28;20451;-64
2022/03/05 02:05:38;;;;;;;1.97;0.77;;;;;;;;;;5049675;28;20489;-64
2022/03/05 02:08:05;;;;;;;4.50;1.00;;;;;;;;;;5040241;28;20433;-65
2022/03/05 02:10:32;;;;;;;1.93;0.90;;;;;;;;;;5048180;28;20448;-65
2022/03/05 02:12:59;;;;;;;2.80;0.93;;;;;;;;;;5050018;28;20429;-64
2022/03/05 02:15:25;;;;;;;2.33;0.73;;;;;;;;;;5048690;28;20441;-64
2022/03/05 02:17:52;;;;;;;2.90;0.93;;;;;;;;;;5049282;28;20774;-64
2022/03/05 02:20:18;;;;;;;2.70;0.80;;;;;;;;;;5049833;28;20447;-64
2022/03/05 02:22:45;;;;;;;3.20;0.90;;;;;;;;;;5036345;28;20873;-65
2022/03/05 02:25:12;;;;;;;3.00;0.90;;;;;;;;;;5029721;28;20437;-66
2022/03/05 02:27:39;;;;;;;3.67;0.90;;;;;;;;;;5039989;28;20434;-64
2022/03/05 02:30:05;;;;;;;2.30;0.93;;;;;;;;;;5040494;28;20477;-64
2022/03/05 02:32:32;;;;;;;3.20;1.20;;;;;;;;;;5047662;28;20444;-64
2022/03/05 02:34:59;;;;;;;3.40;1.07;;;;;;;;;;5037804;28;20441;-64
2022/03/05 02:37:25;;;;;;;4.63;1.63;;;;;;;;;;5047279;28;20429;-65
2022/03/05 02:39:52;;;;;;;3.90;1.20;;;;;;;;;;5047059;28;20437;-65
2022/03/05 02:42:18;;;;;;;2.43;1.10;;;;;;;;;;5035864;28;20481;-64
2022/03/05 02:44:45;;;;;;;3.17;0.90;;;;;;;;;;5049067;28;20457;-64
2022/03/05 02:47:13;;;;;;;3.47;1.10;;;;;;;;;;5035917;28;20500;-64
2022/03/05 02:49:39;;;;;;;5.10;0.93;;;;;;;;;;5048034;28;20556;-64
2022/03/05 02:52:06;;;;;;;2.67;0.90;;;;;;;;;;5042129;28;20833;-64
2022/03/05 02:54:33;;;;;;;4.33;0.80;;;;;;;;;;5029355;28;20495;-65
2022/03/05 02:57:00;;;;;;;2.60;1.10;;;;;;;;;;5028899;28;20449;-64
2022/03/05 02:59:27;;;;;;;4.77;1.10;;;;;;;;;;5029247;28;20484;-64
2022/03/05 03:01:53;;;;;;;2.27;0.93;;;;;;;;;;5040387;28;20480;-64
2022/03/05 03:04:21;;;;;;;3.00;1.00;;;;;;;;;;5043624;28;20565;-65
2022/03/05 03:06:47;;;;;;;2.33;0.73;;;;;;;;;;5039068;28;20450;-64
2022/03/05 03:09:14;;;;;;;1.77;0.80;;;;;;;;;;5029057;28;20442;-64
2022/03/05 03:11:40;;;;;;;1.90;0.83;;;;;;;;;;5031928;28;20442;-65
2022/03/05 03:14:07;;;;;;;2.30;0.80;;;;;;;;;;5029969;28;20533;-64
2022/03/05 03:16:35;;;;;;;1.90;1.00;;;;;;;;;;5032478;28;20865;-65
2022/03/05 03:19:02;;;;;;;3.33;0.90;;;;;;;;;;5046786;28;20500;-64
2022/03/05 03:21:28;;;;;;;4.10;0.97;;;;;;;;;;5048048;28;20527;-64
2022/03/05 03:23:55;;;;;;;2.93;0.90;;;;;;;;;;5048772;28;20461;-64
2022/03/05 03:26:22;;;;;;;1.73;0.80;;;;;;;;;;5037551;28;20534;-64
2022/03/05 03:28:48;;;;;;;3.43;1.10;;;;;;;;;;5028824;28;20471;-65
2022/03/05 03:31:15;;;;;;;1.17;0.60;;;;;;;;;;5028797;28;20867;-64
2022/03/05 03:33:41;;;;;;;2.37;0.67;;;;;;;;;;5038660;28;20437;-64
2022/03/05 03:36:08;;;;;;;1.63;0.70;;;;;;;;;;5048386;28;20448;-64
2022/03/05 03:38:34;;;;;;;2.77;0.80;;;;;;;;;;5034906;28;20442;-64
2022/03/05 03:41:01;;;;;;;2.27;0.90;;;;;;;;;;5043628;28;20441;-64
2022/03/05 03:43:27;;;;;;;3.07;0.80;;;;;;;;;;5048327;28;20496;-65
2022/03/05 03:45:54;;;;;;;1.33;0.70;;;;;;;;;;5040899;28;20468;-64
2022/03/05 03:48:21;;;;;;;10.30;1.20;;;;;;;;;;5028375;28;20485;-64
2022/03/05 03:50:47;;;;;;;1.03;0.70;;;;;;;;;;5039203;28;20442;-64
2022/03/05 03:53:14;;;;;;;1.07;0.60;;;;;;;;;;5043353;28;20853;-64
2022/03/05 03:55:40;;;;;;;1.50;0.60;;;;;;;;;;5043220;28;20449;-64
2022/03/05 03:58:07;;;;;;;2.93;0.93;;;;;;;;;;5047961;28;20474;-64
2022/03/05 04:00:34;;;;;;;1.77;0.63;;;;;;;;;;5034342;28;20452;-65
2022/03/05 04:03:01;;;;;;;2.00;0.80;;;;;;;;;;5026828;28;20469;-64
2022/03/05 04:05:28;;;;;;;1.60;0.60;;;;;;;;;;5028408;28;20505;-64
2022/03/05 04:10:39;;;;;;;2.17;0.47;;;;;;;;;;5027985;28;20438;-64
2022/03/05 04:13:06;;;;;;;1.33;0.50;;;;;;;;;;5027760;28;20438;-64
2022/03/05 04:15:33;;;;;;;2.17;0.50;;;;;;;;;;5041737;28;20845;-64
2022/03/05 04:17:59;;;;;;;3.40;0.60;;;;;;;;;;5046164;28;21200;-64
2022/03/05 04:20:26;;;;;;;2.17;0.63;;;;;;;;;;5040343;28;20829;-65
2022/03/05 04:22:53;;;;;;;2.00;0.70;;;;;;;;;;5043590;28;20868;-64
2022/03/05 04:25:20;;;;;;;1.30;0.63;;;;;;;;;;5029195;28;20442;-63
2022/03/05 04:27:46;;;;;;;1.60;0.60;;;;;;;;;;5044172;28;20499;-65
2022/03/05 04:30:13;;;;;;;2.00;0.50;;;;;;;;;;5032755;28;20446;-64
2022/03/05 04:32:41;;;;;;;1.73;0.70;;;;;;;;;;5036100;28;20437;-64
2022/03/05 04:35:08;;;;;;;1.57;0.70;;;;;;;;;;5047313;28;20438;-64
2022/03/05 04:37:35;;;;;;;2.60;0.70;;;;;;;;;;5032021;28;20901;-64
2022/03/05 04:40:02;;;;;;;2.07;0.40;;;;;;;;;;5044542;28;20442;-64
2022/03/05 04:42:29;;;;;;;2.37;0.50;;;;;;;;;;5045917;28;20508;-65
2022/03/05 04:44:55;;;;;;;2.20;0.57;;;;;;;;;;5045865;28;20452;-64
2022/03/05 04:47:22;;;;;;;1.47;0.50;;;;;;;;;;5031648;28;20938;-65
2022/03/05 04:49:49;;;;;;;0.93;0.50;;;;;;;;;;5028769;28;20444;-65
2022/03/05 04:52:15;;;;;;;4.63;0.80;;;;;;;;;;5051149;28;20890;-64
2022/03/05 04:54:42;;;;;;;1.30;0.50;;;;;;;;;;5048896;28;20446;-64
2022/03/05 04:57:09;;;;;;;1.40;0.80;;;;;;;;;;5040310;28;20454;-65
2022/03/05 04:59:36;;;;;;;2.33;0.80;;;;;;;;;;5041795;28;20959;-64
2022/03/05 05:02:03;;;;;;;2.00;0.70;;;;;;;;;;5049372;28;20456;-64
2022/03/05 05:04:29;;;;;;;2.73;0.70;;;;;;;;;;5050219;28;21271;-65
2022/03/05 05:06:56;;;;;;;1.57;0.50;;;;;;;;;;5028519;28;20488;-64
2022/03/05 05:09:23;;;;;;;2.67;0.80;;;;;;;;;;5030772;28;20933;-65
2022/03/05 05:11:50;;;;;;;1.77;0.57;;;;;;;;;;5034712;28;20484;-64
2022/03/05 05:14:16;;;;;;;2.13;0.70;;;;;;;;;;5039278;28;20813;-65
2022/03/05 05:16:44;;;;;;;2.43;0.50;;;;;;;;;;5030676;28;20521;-64
2022/03/05 05:19:29;;;;;;;2.63;0.80;;;;;;;;;;5031338;28;20438;-64
2022/03/05 05:21:59;;;;;;;2.27;0.70;;;;;;;;;;5033455;28;20446;-64
2022/03/05 05:24:26;;;;;;;1.87;0.70;;;;;;;;;;5049506;28;21001;-65
2022/03/05 05:26:54;;;;;;;1.93;0.83;;;;;;;;;;5033893;28;20536;-64
2022/03/05 05:29:21;;;;;;;2.03;0.70;;;;;;;;;;5038342;28;20438;-64
2022/03/05 05:32:06;;;;;;;4.93;0.63;;;;;;;;;;5042525;28;20843;-64
2022/03/05 05:34:33;;;;;;;1.57;0.70;;;;;;;;;;5044314;28;20425;-65
2022/03/05 05:36:59;;;;;;;2.20;0.60;;;;;;;;;;5042932;28;20521;-64
2022/03/05 05:39:26;;;;;;;2.50;0.87;;;;;;;;;;5044220;28;20503;-63
2022/03/05 05:41:53;;;;;;;1.87;0.77;;;;;;;;;;5043787;28;20610;-63
2022/03/05 05:44:19;;;;;;;3.57;1.30;;;;;;;;;;5044794;28;20449;-63
2022/03/05 05:46:46;;;;;;;2.50;0.87;;;;;;;;;;5043000;28;20897;-64
2022/03/05 05:49:18;;;;;;;1.77;0.90;;;;;;;;;;5041980;28;20520;-65
2022/03/05 05:51:45;;;;;;;3.40;0.97;;;;;;;;;;5043630;28;20801;-64
2022/03/05 05:54:12;;;;;;;2.73;0.90;;;;;;;;;;5043706;28;21046;-65
2022/03/05 05:56:38;;;;;;;3.83;1.33;;;;;;;;;;5043544;28;20467;-64
2022/03/05 05:59:05;;;;;;;1.80;1.17;;;;;;;;;;5042903;28;20544;-64
2022/03/05 06:01:32;;;;;;;1.90;0.90;;;;;;;;;;5041408;28;20448;-65
2022/03/05 06:03:59;;;;;;;1.43;0.57;;;;;;;;;;5041520;28;21174;-64
2022/03/05 06:06:26;;;;;;;1.93;0.80;;;;;;;;;;5042227;28;20487;-63
2022/03/05 06:08:53;;;;;;;2.63;0.90;;;;;;;;;;5042535;28;20553;-63
2022/03/05 06:11:19;;;;;;;3.40;0.93;;;;;;;;;;5043099;28;20441;-63
2022/03/05 06:13:46;;;;;;;4.00;1.33;;;;;;;;;;5043410;28;20520;-63
2022/03/05 06:16:13;;;;;;;5.97;1.80;;;;;;;;;;5041649;28;20449;-63
2022/03/05 06:18:40;;;;;;;2.73;1.00;;;;;;;;;;5042891;28;20450;-64
2022/03/05 06:21:09;;;;;;;2.53;0.90;;;;;;;;;;5042029;28;20507;-63
2022/03/05 06:23:36;;;;;;;2.60;0.60;;;;;;;;;;5042757;28;20610;-64
2022/03/05 06:26:03;;;;;;;3.90;0.70;;;;;;;;;;5042287;28;20449;-64
2022/03/05 06:28:30;;;;;;;3.77;0.60;;;;;;;;;;5042109;28;20445;-64
2022/03/05 06:30:57;;;;;;;3.30;1.10;;;;;;;;;;5042536;28;20445;-64
2022/03/05 06:33:24;;;;;;;1.30;0.60;;;;;;;;;;5042976;28;20524;-62
2022/03/05 06:35:50;;;;;;;3.60;0.80;;;;;;;;;;5037858;28;20438;-62
2022/03/05 06:38:17;;;;;;;1.73;0.57;;;;;;;;;;5045850;28;20429;-63
2022/03/05 06:40:44;;;;;;;2.33;0.50;;;;;;;;;;5045399;28;20454;-62
2022/03/05 06:43:11;;;;;;;4.30;0.80;;;;;;;;;;5067719;28;20476;-63
2022/03/05 06:45:38;;;;;;;2.80;0.90;;;;;;;;;;5052631;28;20418;-62
2022/03/05 06:48:05;;;;;;;3.83;0.87;;;;;;;;;;5049108;28;21018;-62
2022/03/05 06:50:32;;;;;;;1.73;0.93;;;;;;;;;;5049499;28;20471;-62
2022/03/05 06:52:58;;;;;;;2.80;0.90;;;;;;;;;;5049330;28;20435;-62
2022/03/05 06:55:25;;;;;;;2.17;0.60;;;;;;;;;;5048912;28;20899;-62
2022/03/05 06:57:52;;;;;;;1.83;0.57;;;;;;;;;;5049110;28;20429;-62
2022/03/05 07:00:18;;;;;;;3.30;0.80;;;;;;;;;;5047647;28;20448;-62
2022/03/05 07:02:45;;;;;;;1.13;0.77;;;;;;;;;;5049031;28;20466;-62
2022/03/05 07:05:12;;;;;;;2.60;0.80;;;;;;;;;;5031055;28;20489;-62
2022/03/05 07:07:39;;;;;;;2.77;0.70;;;;;;;;;;5059573;28;21075;-62
2022/03/05 07:10:06;;;;;;;4.77;1.10;;;;;;;;;;5061580;28;20429;-63
2022/03/05 07:12:33;;;;;;;5.43;1.53;;;;;;;;;;5064163;28;20900;-62
2022/03/05 07:15:03;;;;;;;5.37;1.30;;;;;;;;;;5034225;28;20442;-62
2022/03/05 07:17:29;;;;;;;4.53;0.80;;;;;;;;;;5029167;28;20470;-62
2022/03/05 07:19:56;;;;;;;2.43;1.00;;;;;;;;;;5029671;28;20464;-64
2022/03/05 07:22:23;;;;;;;2.10;0.83;;;;;;;;;;5048608;28;20429;-63
2022/03/05 07:24:50;;;;;;;2.73;0.77;;;;;;;;;;5039897;28;20438;-65
2022/03/05 07:27:16;;;;;;;3.20;1.00;;;;;;;;;;5028891;28;20437;-65
2022/03/05 07:29:43;;;;;;;1.53;0.70;;;;;;;;;;5028665;28;20489;-64
2022/03/05 07:32:11;;;;;;;4.30;0.80;;;;;;;;;;5027877;28;20830;-64
2022/03/05 07:34:37;;;;;;;4.87;1.53;;;;;;;;;;5028801;28;20493;-64
2022/03/05 07:37:04;;;;;;;5.33;2.30;;;;;;;;;;5028341;28;20434;-65
2022/03/05 07:39:30;;;;;;;4.13;1.30;;;;;;;;;;5028675;28;20464;-64
2022/03/05 07:41:57;;;;;;;3.07;1.10;;;;;;;;;;5027512;28;20446;-64
2022/03/05 07:44:24;;;;;;;0.93;0.60;;;;;;;;;;5028625;28;20894;-65
2022/03/05 07:46:50;;;;;;;2.23;1.00;;;;;;;;;;5028391;28;20438;-64
2022/03/05 07:49:26;;;;;;;4.10;0.70;;;;;;;;;;5028555;28;20477;-64
2022/03/05 07:52:37;;;;;;;0.97;0.63;;;;;;;;;;4937973;29;21112;-64
2022/03/05 07:55:49;;;;;;;0.90;0.57;;;;;;;;;;4947956;28;20455;-64
2022/03/05 07:59:16;;;;;;;1.80;0.70;;;;;;;;;;4942213;28;20483;-64
2022/03/05 08:02:17;;;;;;;6.27;1.00;;;;;;;;;;4947607;28;20492;-65
2022/03/05 08:05:18;;;;;;;3.70;0.80;;;;;;;;;;4947919;28;20469;-64
2022/03/05 08:08:07;;;;;;;1.33;0.77;;;;;;;;;;4959306;28;20476;-65
2022/03/05 08:10:57;;;;;;;2.63;0.80;;;;;;;;;;4952987;28;20548;-65
2022/03/05 08:14:33;;;;;;;2.93;0.50;;;;;;;;;;4967071;28;20444;-64
2022/03/05 08:17:31;;;;;;;3.17;0.80;;;;;;;;;;4967132;28;20455;-64
2022/03/05 08:20:18;;;;;;;2.37;0.87;;;;;;;;;;4958144;28;20536;-65
2022/03/05 08:23:02;;;;;;;14.10;3.47;;;;;;;;;;4992002;28;21277;-65
2022/03/05 08:26:13;;;;;;;3.00;0.67;;;;;;;;;;5030881;28;20809;-64
2022/03/05 08:28:56;;;;;;;1.50;0.60;;;;;;;;;;5031878;28;20445;-64
2022/03/05 08:35:38;;;;;;;2.43;0.67;;;;;;;;;;5031798;28;20466;-65
2022/03/05 08:38:39;;;;;;;3.17;1.10;;;;;;;;;;5032340;28;20903;-65
2022/03/05 08:41:31;;;;;;;3.93;1.13;;;;;;;;;;5012994;28;20592;-64
2022/03/05 08:44:16;;;;;;;;;;;;;;;;;;;;;
2022/03/05 08:47:09;;;;;;;2.40;0.70;;;;;;;;;;4989587;28;20475;-65
2022/03/05 08:49:59;;;;;;;3.80;1.00;;;;;;;;;;4989530;28;20235;-65
2022/03/05 08:52:48;;;;;;;1.30;0.60;;;;;;;;;;4986052;28;20460;-65
2022/03/05 08:55:17;;;;;;;1.30;0.43;;;;;;;;;;4989275;28;20494;-65
2022/03/05 08:58:20;;;;;;;2.33;0.50;;;;;;;;;;4991259;28;20196;-65
2022/03/05 09:01:37;;;;;;;1.03;0.60;;;;;;;;;;4984186;28;20435;-67
2022/03/05 09:05:13;;;;;;;0.90;0.43;;;;;;;;;;4966484;28;20531;-68
2022/03/05 09:08:19;;;;;;;2.70;0.90;;;;;;;;;;4952202;28;20437;-65
2022/03/05 09:14:57;;;;;;;1.10;0.50;;;;;;;;;;4989084;28;20537;-66
2022/03/05 09:17:55;;;;;;;1.93;0.50;;;;;;;;;;4996462;28;21338;-66
2022/03/05 09:21:02;;;;;;;;;;;;;;;;;;;;;
2022/03/05 09:24:20;;;;;;;2.17;0.47;;;;;;;;;;4973343;28;20850;-67
2022/03/05 09:27:26;;;;;;;2.80;0.70;;;;;;;;;;5004714;28;20447;-66
2022/03/05 09:30:35;;;;;;;4.63;0.90;;;;;;;;;;5001220;28;20438;-65
2022/03/05 09:33:45;;;;;;;1.33;0.80;;;;;;;;;;5002223;28;20439;-66
2022/03/05 09:36:51;;;;;;;3.80;1.50;;;;;;;;;;5000490;28;20444;-67
2022/03/05 09:43:01;;;;;;;2.27;0.70;;;;;;;;;;5001314;28;20541;-66
2022/03/05 09:45:27;;;;;;;3.53;0.80;;;;;;;;;;5001696;28;20505;-66
2022/03/05 09:47:55;;;;;;;1.30;0.83;;;;;;;;;;5001499;28;20437;-67
2022/03/05 09:50:22;;;;;;;2.83;1.20;;;;;;;;;;5042913;28;20444;-65
2022/03/05 09:52:49;;;;;;;2.90;0.80;;;;;;;;;;5043739;28;20429;-66
2022/03/05 09:55:16;;;;;;;1.67;0.60;;;;;;;;;;5044721;28;20435;-66
2022/03/05 09:57:44;;;;;;;2.23;0.60;;;;;;;;;;5043481;28;20438;-68
2022/03/05 10:00:10;;;;;;;1.60;0.63;;;;;;;;;;5034251;28;20438;-64
2022/03/05 10:02:38;;;;;;;2.10;0.90;;;;;;;;;;5030652;28;20775;-64
2022/03/05 10:05:15;;;;;;;5.33;0.80;;;;;;;;;;5028791;28;20492;-65
2022/03/05 10:07:57;;;;;;;2.47;0.60;;;;;;;;;;5038014;28;21067;-61
2022/03/05 10:10:24;;;;;;;1.33;0.63;;;;;;;;;;5049704;28;20784;-63
2022/03/05 10:12:50;;;;;;;3.47;1.37;;;;;;;;;;5049766;28;20440;-62
2022/03/05 10:15:23;;;;;;;1.10;0.77;;;;;;;;;;5048683;28;20447;-61
2022/03/05 10:17:57;;;;;;;7.10;2.57;;;;;;;;;;5050039;28;20901;-61
2022/03/05 10:20:26;;;;;;;7.97;3.37;;;;;;;;;;5050125;28;20439;-59
2022/03/05 10:22:56;;;;;;;9.80;2.83;;;;;;;;;;5049748;28;20848;-59
2022/03/05 10:25:29;;;;;;;4.90;1.57;;;;;;;;;;5049692;28;20538;-60
2022/03/05 10:27:59;;;;;;;2.00;0.80;;;;;;;;;;5049803;28;20439;-61
2022/03/05 10:30:30;;;;;;;2.50;0.60;;;;;;;;;;5048134;28;20436;-61
2022/03/05 10:32:56;;;;;;;3.63;0.60;;;;;;;;;;5049764;28;20421;-60
2022/03/05 10:35:23;;;;;;;0.70;0.50;;;;;;;;;;5049749;28;20483;-60
2022/03/05 10:37:51;;;;;;;2.03;0.60;;;;;;;;;;5048378;28;20430;-60
2022/03/05 10:40:24;;;;;;;2.03;0.90;;;;;;;;;;5049511;28;20971;-59
2022/03/05 10:42:51;;;;;;;7.03;2.30;;;;;;;;;;5049140;28;20417;-59
2022/03/05 10:45:18;;;;;;;3.03;0.90;;;;;;;;;;5049646;28;20482;-59
2022/03/05 10:47:46;;;;;;;2.03;0.90;;;;;;;;;;5048586;28;20479;-59
2022/03/05 10:50:18;;;;;;;1.83;0.63;;;;;;;;;;5049706;28;21022;-59
2022/03/05 10:52:48;;;;;;;2.23;1.10;;;;;;;;;;5048943;28;20441;-59
2022/03/05 10:55:16;;;;;;;2.47;0.63;;;;;;;;;;5049323;28;20429;-59
2022/03/05 10:57:58;;;;;;;13.20;5.50;;;;;;;;;;5048870;28;20430;-59
2022/03/05 11:00:25;;;;;;;7.57;3.50;;;;;;;;;;5048872;28;20436;-59
2022/03/05 11:02:52;;;;;;;3.47;1.37;;;;;;;;;;5048896;28;20946;-60
2022/03/05 11:05:19;;;;;;;3.53;1.07;;;;;;;;;;5049237;28;20484;-60
2022/03/05 11:07:50;;;;;;;3.13;0.70;;;;;;;;;;5043999;28;20771;-60
2022/03/05 11:10:18;;;;;;;2.43;0.70;;;;;;;;;;5029242;28;20434;-60
2022/03/05 11:12:51;;;;;;;3.03;0.70;;;;;;;;;;5043779;28;20427;-60
2022/03/05 11:15:18;;;;;;;1.90;0.60;;;;;;;;;;5029018;28;20434;-59
2022/03/05 11:17:46;;;;;;;2.20;0.93;;;;;;;;;;5029016;28;20229;-60
2022/03/05 11:20:13;;;;;;;2.27;0.70;;;;;;;;;;5029441;28;20441;-60
2022/03/05 11:22:41;;;;;;;2.20;0.73;;;;;;;;;;5028617;28;20841;-60
2022/03/05 11:25:12;;;;;;;5.23;1.27;;;;;;;;;;5028948;28;20477;-61
2022/03/05 11:27:38;;;;;;;2.93;0.90;;;;;;;;;;5028796;28;21005;-61
2022/03/05 11:30:05;;;;;;;2.43;1.10;;;;;;;;;;5027334;28;20439;-61
2022/03/05 11:32:33;;;;;;;2.43;0.80;;;;;;;;;;5027759;28;21124;-66
2022/03/05 11:35:00;;;;;;;1.50;0.80;;;;;;;;;;5040738;28;20252;-64
2022/03/05 11:37:33;;;;;;;2.53;0.90;;;;;;;;;;5043289;28;20421;-66
2022/03/05 11:40:00;;;;;;;2.50;1.20;;;;;;;;;;5042484;28;20192;-63
2022/03/05 11:42:28;;;;;;;1.80;0.80;;;;;;;;;;5039540;28;20437;-64
2022/03/05 11:44:55;;;;;;;1.20;0.50;;;;;;;;;;5032025;28;20476;-65
2022/03/05 11:47:24;;;;;;;1.60;0.80;;;;;;;;;;5027566;28;21148;-65
2022/03/05 11:50:00;;;;;;;2.33;0.80;;;;;;;;;;5028623;28;20438;-66
2022/03/05 11:52:38;;;;;;;2.10;0.90;;;;;;;;;;5029464;28;20829;-65
2022/03/05 11:55:15;;;;;;;2.10;0.80;;;;;;;;;;5055526;28;20205;-64
2022/03/05 11:58:03;;;;;;;2.50;0.90;;;;;;;;;;5049552;28;20289;-67
2022/03/05 12:00:31;;;;;;;1.83;0.70;;;;;;;;;;5043813;28;20701;-64
2022/03/05 12:02:58;;;;;;;3.53;0.80;;;;;;;;;;5031304;28;20194;-66
2022/03/05 12:05:37;;;;;;;2.50;0.87;;;;;;;;;;5037215;28;20264;-64
2022/03/05 12:08:05;;;;;;;2.57;1.37;;;;;;;;;;5036970;28;20230;-67
2022/03/05 12:10:34;;;;;;;2.27;1.10;;;;;;;;;;5047390;28;20536;-63
2022/03/05 12:13:01;;;;;;;2.20;0.80;;;;;;;;;;5049979;28;20201;-67
2022/03/05 12:15:38;;;;;;;2.10;0.70;;;;;;;;;;5056256;28;20196;-64
2022/03/05 12:18:06;;;;;;;1.47;0.80;;;;;;;;;;5033099;28;20887;-65
2022/03/05 12:20:34;;;;;;;1.80;0.73;;;;;;;;;;5067843;28;20875;-65
2022/03/05 12:23:05;;;;;;;2.30;1.20;;;;;;;;;;5053468;28;20265;-65
2022/03/05 12:25:32;;;;;;;2.77;0.70;;;;;;;;;;5052516;28;20472;-67
2022/03/05 12:28:01;;;;;;;2.27;1.20;;;;;;;;;;5058574;28;20437;-69
2022/03/05 12:30:35;;;;;;;3.53;1.07;;;;;;;;;;5025260;28;20203;-67
2022/03/05 12:33:03;;;;;;;5.93;1.10;;;;;;;;;;5053613;28;20194;-66
2022/03/05 12:35:31;;;;;;;2.13;1.07;;;;;;;;;;5060031;28;20468;-66
2022/03/05 12:37:58;;;;;;;1.00;0.60;;;;;;;;;;5058626;28;20441;-66
2022/03/05 12:40:25;;;;;;;1.90;0.60;;;;;;;;;;5053698;28;20413;-66
2022/03/05 12:42:52;;;;;;;1.60;0.67;;;;;;;;;;5053104;28;20440;-66
2022/03/05 12:45:26;;;;;;;5.23;1.70;;;;;;;;;;5044362;28;20476;-66
2022/03/05 12:47:54;;;;;;;2.70;1.47;;;;;;;;;;5037683;28;20491;-66
2022/03/05 12:50:29;;;;;;;6.97;2.53;;;;;;;;;;5060326;28;20190;-63
2022/03/05 12:53:16;;;;;;;5.10;1.13;;;;;;;;;;5054481;28;20214;-59
2022/03/05 12:55:46;;;;;;;2.17;1.07;;;;;;;;;;5056574;28;20944;-60
2022/03/05 12:58:17;;;;;;;7.73;2.37;;;;;;;;;;5053873;28;20461;-61
2022/03/05 13:00:44;;;;;;;4.67;1.57;;;;;;;;;;5069643;28;20421;-60
2022/03/05 13:03:14;;;;;;;5.03;1.00;;;;;;;;;;5055604;28;20855;-60
2022/03/05 13:05:42;;;;;;;2.63;0.70;;;;;;;;;;5050649;28;20541;-60
2022/03/05 13:08:12;;;;;;;2.93;0.70;;;;;;;;;;5070788;28;20486;-60
2022/03/05 13:10:39;;;;;;;1.80;0.87;;;;;;;;;;5052275;28;20449;-61
2022/03/05 13:13:07;;;;;;;3.00;0.90;;;;;;;;;;5066350;28;20931;-60
2022/03/05 13:15:36;;;;;;;1.93;1.10;;;;;;;;;;5049029;28;20437;-60
2022/03/05 13:18:10;;;;;;;1.37;0.60;;;;;;;;;;5039123;28;20452;-60
2022/03/05 13:20:37;;;;;;;4.03;1.00;;;;;;;;;;5064187;28;20552;-61
2022/03/05 13:23:07;;;;;;;2.17;0.80;;;;;;;;;;5040472;28;20433;-73
2022/03/05 13:25:38;;;;;;;10.73;3.83;;;;;;;;;;5061524;28;20554;-66
2022/03/05 13:28:05;;;;;;;3.27;1.60;;;;;;;;;;5040209;28;20437;-70
2022/03/05 13:30:32;;;;;;;2.17;1.30;;;;;;;;;;5058674;28;20440;-69
2022/03/05 13:32:59;;;;;;;5.73;2.87;;;;;;;;;;5029087;28;20493;-66
2022/03/05 13:35:27;;;;;;;2.53;1.00;;;;;;;;;;5044530;28;20445;-66
2022/03/05 13:37:56;;;;;;;5.17;1.87;;;;;;;;;;5045513;28;20495;-67
2022/03/05 13:40:24;;;;;;;2.83;1.00;;;;;;;;;;5043410;28;20430;-67
2022/03/05 13:42:54;;;;;;;2.33;0.73;;;;;;;;;;5044947;28;20441;-67
2022/03/05 13:45:22;;;;;;;2.30;0.70;;;;;;;;;;5042559;28;20470;-67
2022/03/05 13:47:49;;;;;;;1.47;0.50;;;;;;;;;;5022567;28;20445;-65
2022/03/05 13:50:16;;;;;;;0.90;0.70;;;;;;;;;;5042663;28;20446;-66
2022/03/05 13:52:53;;;;;;;1.03;0.63;;;;;;;;;;5044003;28;20561;-65
2022/03/05 13:55:20;;;;;;;1.70;0.80;;;;;;;;;;5044412;28;20445;-69
2022/03/05 13:57:48;;;;;;;3.37;1.00;;;;;;;;;;5043130;28;20829;-67
2022/03/05 14:00:15;;;;;;;5.17;2.30;;;;;;;;;;5043947;28;20987;-67
2022/03/05 14:02:43;;;;;;;3.00;1.30;;;;;;;;;;5042687;28;21153;-67
2022/03/05 14:05:11;;;;;;;1.07;0.50;;;;;;;;;;5044281;28;20543;-68
2022/03/05 14:07:38;;;;;;;2.27;0.90;;;;;;;;;;5043602;28;20421;-67
2022/03/05 14:10:06;;;;;;;2.67;0.60;;;;;;;;;;5033454;28;20441;-66
2022/03/05 14:12:34;;;;;;;3.47;1.70;;;;;;;;;;5029042;28;20533;-67
2022/03/05 14:15:01;;;;;;;2.47;1.17;;;;;;;;;;5028357;28;20480;-67
2022/03/05 14:17:33;;;;;;;2.20;1.10;;;;;;;;;;5031207;28;20446;-67
2022/03/05 14:20:03;;;;;;;2.23;1.10;;;;;;;;;;5043621;28;21267;-66
2022/03/05 14:22:37;;;;;;;1.87;1.00;;;;;;;;;;5043941;28;20760;-67
2022/03/05 14:25:05;;;;;;;1.30;0.50;;;;;;;;;;5029662;28;20803;-65
2022/03/05 14:27:32;;;;;;;4.33;1.43;;;;;;;;;;5029913;28;20430;-65
2022/03/05 14:29:58;;;;;;;3.30;1.00;;;;;;;;;;5028293;28;20507;-65
2022/03/05 14:32:25;;;;;;;6.97;4.00;;;;;;;;;;5028757;28;20426;-65
2022/03/05 14:34:52;;;;;;;7.00;3.37;;;;;;;;;;5029645;28;20854;-65
2022/03/05 14:37:18;;;;;;;5.43;2.67;;;;;;;;;;5029116;28;20442;-65
2022/03/05 14:39:45;;;;;;;11.97;4.50;;;;;;;;;;5028318;28;20866;-65
2022/03/05 14:42:12;;;;;;;3.80;1.57;;;;;;;;;;5028556;28;20419;-65
2022/03/05 14:44:38;;;;;;;5.07;3.10;;;;;;;;;;5012022;28;20509;-66
2022/03/05 14:47:05;;;;;;;5.23;2.20;;;;;;;;;;5029389;28;20440;-65
2022/03/05 14:49:32;;;;;;;6.33;2.73;;;;;;;;;;5029540;28;20442;-66
2022/03/05 14:51:59;;;;;;;3.07;1.00;;;;;;;;;;5029501;28;20426;-65
2022/03/05 14:54:25;;;;;;;3.10;1.40;;;;;;;;;;5029046;28;20941;-65
2022/03/05 14:56:52;;;;;;;4.30;1.53;;;;;;;;;;5029267;28;20462;-65
2022/03/05 14:59:19;;;;;;;2.00;1.40;;;;;;;;;;5029586;28;20470;-65
2022/03/05 15:01:45;;;;;;;3.13;1.70;;;;;;;;;;5028986;28;20431;-65
2022/03/05 15:04:13;;;;;;;7.37;2.60;;;;;;;;;;5028926;28;21016;-65
2022/03/05 15:06:39;;;;;;;3.77;1.60;;;;;;;;;;5029739;28;21285;-65
2022/03/05 15:09:06;;;;;;;3.83;1.60;;;;;;;;;;5035973;28;20449;-65
2022/03/05 15:11:36;;;;;;;15.33;7.97;;;;;;;;;;5029573;28;20463;-65
2022/03/05 15:14:03;;;;;;;4.87;2.67;;;;;;;;;;5028716;28;20426;-65
2022/03/05 15:16:30;;;;;;;2.93;1.40;;;;;;;;;;5029109;28;20432;-65
2022/03/05 15:18:56;;;;;;;13.17;6.00;;;;;;;;;;5029019;28;20442;-65
2022/03/05 15:21:23;;;;;;;4.20;2.13;;;;;;;;;;5027479;28;20477;-65
2022/03/05 15:23:50;;;;;;;5.33;2.70;;;;;;;;;;5028270;28;20442;-65
2022/03/05 15:26:17;;;;;;;5.10;2.07;;;;;;;;;;5028853;28;21084;-65
2022/03/05 15:28:44;;;;;;;4.47;2.23;;;;;;;;;;5028502;28;20439;-65
2022/03/05 15:31:12;;;;;;;2.37;1.13;;;;;;;;;;5028528;28;20430;-65
2022/03/05 15:33:43;;;;;;;2.97;1.10;;;;;;;;;;5027476;28;20518;-65
2022/03/05 15:36:10;;;;;;;28.20;11.00;;;;;;;;;;5028773;28;20430;-65
2022/03/05 15:38:37;;;;;;;38.80;17.53;;;;;;;;;;5027701;28;20440;-65
2022/03/05 15:41:04;;;;;;;12.53;3.47;;;;;;;;;;5032071;28;20514;-65
2022/03/05 15:43:31;;;;;;;8.37;4.17;;;;;;;;;;5047294;28;20945;-64
2022/03/05 15:45:57;;;;;;;2.47;1.20;;;;;;;;;;5063603;28;21060;-64
2022/03/05 15:48:24;;;;;;;2.13;0.80;;;;;;;;;;5048177;28;20468;-64
2022/03/05 15:50:51;;;;;;;2.23;0.83;;;;;;;;;;5047293;28;20940;-64
2022/03/05 15:53:17;;;;;;;3.67;1.37;;;;;;;;;;5048779;28;20456;-64
2022/03/05 15:55:44;;;;;;;12.97;5.67;;;;;;;;;;5048055;28;20426;-64